Time;durP1;ratioP1;P1;durP2;ratioP2;P2;SDS_P1;SDS_P2;PMS_P1;PMS_P2;Temp;Humidity;BMP_temperature;BMP_pressure;BME280_temperature;BME280_humidity;BME280_pressure;Samples;Min_cycle;Max_cycle;Signal;HPM_P1;HPM_P2
2024/04/17 00:01:50;;;;;;;8.30;3.17;;;;;;;-145.63;100.00;61273.97;4982587;28;20062;-67
2024/04/17 00:04:15;;;;;;;12.13;3.67;;;;;;;-145.63;100.00;61273.97;4980866;28;20030;-65
2024/04/17 00:06:41;;;;;;;6.80;3.40;;;;;;;-145.63;100.00;61273.97;4982499;28;20033;-66
2024/04/17 00:09:07;;;;;;;6.72;3.17;;;;;;;-145.63;100.00;61273.97;4982748;28;20054;-65
2024/04/17 00:11:33;;;;;;;4.78;2.60;;;;;;;-145.63;100.00;61273.97;4987024;28;20038;-65
2024/04/17 00:13:58;;;;;;;6.75;3.15;;;;;;;-145.63;100.00;61273.97;4986186;28;20104;-66
2024/04/17 00:16:24;;;;;;;5.72;2.70;;;;;;;-145.63;100.00;61273.97;4979547;28;20026;-67
2024/04/17 00:19:01;;;;;;;5.68;3.05;;;;;;;-145.63;100.00;61273.97;4981906;28;20373;-66
2024/04/17 00:21:39;;;;;;;9.57;3.20;;;;;;;-145.63;100.00;61273.97;4979175;28;20030;-66
2024/04/17 00:24:29;;;;;;;8.60;3.40;;;;;;;-145.63;100.00;61273.97;4985143;28;20070;-67
2024/04/17 00:26:56;;;;;;;6.55;3.33;;;;;;;-145.63;100.00;61273.97;4992064;28;20034;-66
2024/04/17 00:29:33;;;;;;;9.95;3.42;;;;;;;-145.63;100.00;61273.97;4984713;28;20036;-67
2024/04/17 00:31:59;;;;;;;6.45;3.20;;;;;;;-145.63;100.00;61273.97;4976762;28;20464;-67
2024/04/17 00:34:43;;;;;;;9.13;3.63;;;;;;;-145.63;100.00;61273.97;4984734;28;20070;-65
2024/04/17 00:37:20;;;;;;;9.52;3.70;;;;;;;-145.63;100.00;61273.97;4984945;28;20109;-66
2024/04/17 00:39:46;;;;;;;10.38;3.50;;;;;;;-145.63;100.00;61273.97;4982438;28;20142;-66
2024/04/17 00:42:42;;;;;;;4.60;3.22;;;;;;;-145.63;100.00;61273.97;4983258;28;20036;-66
2024/04/17 00:45:07;;;;;;;6.47;3.20;;;;;;;-145.63;100.00;61273.97;4980754;28;20041;-67
2024/04/17 00:47:33;;;;;;;9.32;3.67;;;;;;;-145.63;100.00;61273.97;4976245;28;20030;-66
2024/04/17 00:49:59;;;;;;;7.05;3.53;;;;;;;-145.63;100.00;61273.97;4979484;28;20034;-65
2024/04/17 00:52:26;;;;;;;8.75;3.30;;;;;;;-145.63;100.00;61273.97;4979929;28;20492;-66
2024/04/17 00:54:52;;;;;;;11.05;3.33;;;;;;;-145.63;100.00;61273.97;4977315;28;20034;-66
2024/04/17 00:57:19;;;;;;;8.48;3.00;;;;;;;-145.63;100.00;61273.97;4980704;28;20023;-66
2024/04/17 00:59:45;;;;;;;8.57;3.58;;;;;;;-145.63;100.00;61273.97;4978003;28;20117;-64
2024/04/17 01:02:12;;;;;;;6.68;3.40;;;;;;;-145.63;100.00;61273.97;4977224;28;20038;-66
2024/04/17 01:04:38;;;;;;;10.30;3.63;;;;;;;-145.63;100.00;61273.97;4979102;28;20439;-65
2024/04/17 01:07:04;;;;;;;7.60;3.40;;;;;;;-145.63;100.00;61273.97;4982542;28;20105;-68
2024/04/17 01:09:30;;;;;;;6.18;3.10;;;;;;;-145.63;100.00;61273.97;4979854;28;20040;-66
2024/04/17 01:12:01;;;;;;;5.32;3.00;;;;;;;-145.63;100.00;61273.97;4982643;28;20372;-65
2024/04/17 01:14:27;;;;;;;4.78;3.42;;;;;;;-145.63;100.00;61273.97;4983872;28;20114;-65
2024/04/17 01:16:52;;;;;;;5.32;3.05;;;;;;;-145.63;100.00;61273.97;4983006;28;20498;-64
2024/04/17 01:19:18;;;;;;;9.38;2.95;;;;;;;-145.63;100.00;61273.97;4981723;28;20063;-65
2024/04/17 01:21:44;;;;;;;7.70;3.88;;;;;;;-145.63;100.00;61273.97;4984982;28;20042;-65
2024/04/17 01:24:10;;;;;;;10.48;3.28;;;;;;;-145.63;100.00;61273.97;4976988;28;20034;-66
2024/04/17 01:26:35;;;;;;;6.57;3.03;;;;;;;-145.63;100.00;61273.97;4981931;28;20026;-65
2024/04/17 01:29:01;;;;;;;7.32;2.92;;;;;;;-145.63;100.00;61273.97;4977382;28;20035;-66
2024/04/17 01:31:26;;;;;;;5.20;3.05;;;;;;;-145.63;100.00;61273.97;4981266;28;20058;-65
2024/04/17 01:33:52;;;;;;;4.95;2.33;;;;;;;-145.63;100.00;61273.97;4981307;28;20042;-65
2024/04/17 01:36:42;;;;;;;7.78;2.78;;;;;;;-145.63;100.00;61273.97;4977822;28;20026;-65
2024/04/17 01:39:07;;;;;;;6.45;2.75;;;;;;;-145.63;100.00;61273.97;4980226;28;20146;-66
2024/04/17 01:41:57;;;;;;;4.65;2.65;;;;;;;-145.63;100.00;61273.97;4980931;28;20064;-65
2024/04/17 01:44:35;;;;;;;4.20;2.70;;;;;;;-145.63;100.00;61273.97;4980685;28;20022;-65
2024/04/17 01:47:03;;;;;;;4.68;2.70;;;;;;;-145.63;100.00;61273.97;4981859;28;20031;-65
2024/04/17 01:49:29;;;;;;;6.18;2.70;;;;;;;-145.63;100.00;61273.97;4982501;28;20031;-65
2024/04/17 01:51:55;;;;;;;7.90;3.15;;;;;;;-145.63;100.00;61273.97;4976285;28;20041;-65
2024/04/17 01:54:20;;;;;;;5.32;2.50;;;;;;;-145.63;100.00;61273.97;4980106;28;20415;-65
2024/04/17 01:56:48;;;;;;;8.00;2.80;;;;;;;-145.63;100.00;61273.97;4981210;28;20058;-65
2024/04/17 01:59:14;;;;;;;6.80;2.92;;;;;;;-145.63;100.00;61273.97;4976624;28;20439;-65
2024/04/17 02:01:39;;;;;;;8.85;3.10;;;;;;;-145.63;100.00;61273.97;4978959;28;20085;-64
2024/04/17 02:04:05;;;;;;;4.90;2.70;;;;;;;-145.63;100.00;61273.97;4976347;28;20433;-64
2024/04/17 02:06:30;;;;;;;6.60;3.13;;;;;;;-145.63;100.00;61273.97;4981436;28;20093;-65
2024/04/17 02:08:56;;;;;;;7.85;3.30;;;;;;;-145.63;100.00;61273.97;4980116;28;20034;-66
2024/04/17 02:11:33;;;;;;;6.13;3.03;;;;;;;-145.63;100.00;61273.97;4975104;28;20333;-64
2024/04/17 02:14:36;;;;;;;6.18;3.00;;;;;;;-145.63;100.00;61273.97;4985216;28;20697;-64
2024/04/17 02:17:53;;;;;;;5.88;3.08;;;;;;;-145.63;100.00;61273.97;4984576;28;20372;-66
2024/04/17 02:20:19;;;;;;;7.47;2.88;;;;;;;-145.63;100.00;61273.97;4979622;28;20473;-66
2024/04/17 02:22:44;;;;;;;6.22;3.20;;;;;;;-145.63;100.00;61273.97;4979554;28;20038;-64
2024/04/17 02:25:10;;;;;;;5.20;3.08;;;;;;;-145.63;100.00;61273.97;4979832;28;20042;-65
2024/04/17 02:27:36;;;;;;;5.65;2.70;;;;;;;-145.63;100.00;61273.97;4978917;28;20123;-64
2024/04/17 02:30:02;;;;;;;8.25;2.85;;;;;;;-145.63;100.00;61273.97;4961497;28;20042;-64
2024/04/17 02:32:30;;;;;;;5.32;2.80;;;;;;;-145.63;100.00;61273.97;4983217;28;20558;-65
2024/04/17 02:34:56;;;;;;;6.97;3.88;;;;;;;-145.63;100.00;61273.97;4980147;28;20065;-66
2024/04/17 02:37:21;;;;;;;6.13;2.95;;;;;;;-145.63;100.00;61273.97;4985138;28;20107;-66
2024/04/17 02:39:50;;;;;;;7.68;2.85;;;;;;;-145.63;100.00;61273.97;4976450;28;20038;-65
2024/04/17 02:42:37;;;;;;;8.50;3.00;;;;;;;-145.63;100.00;61273.97;4978847;28;20194;-67
2024/04/17 02:45:15;;;;;;;5.13;3.20;;;;;;;-145.63;100.00;61273.97;4986294;28;20070;-65
2024/04/17 02:47:44;;;;;;;5.18;2.95;;;;;;;-145.63;100.00;61273.97;4977447;28;20500;-66
2024/04/17 02:53:27;;;;;;;5.68;3.20;;;;;;;-145.63;100.00;61273.97;4977153;28;20036;-66
2024/04/17 02:55:59;;;;;;;4.80;2.90;;;;;;;-145.63;100.00;61273.97;4980244;28;20034;-65
2024/04/17 02:58:46;;;;;;;5.10;2.90;;;;;;;-145.63;100.00;61273.97;4981335;28;20061;-65
2024/04/17 03:01:16;;;;;;;4.97;3.25;;;;;;;-145.63;100.00;61273.97;4978195;28;20101;-66
2024/04/17 03:03:47;;;;;;;6.55;3.75;;;;;;;-145.63;100.00;61273.97;4979059;28;20034;-65
2024/04/17 03:06:13;;;;;;;7.05;3.13;;;;;;;-145.63;100.00;61273.97;4977383;28;20039;-65
2024/04/17 03:08:39;;;;;;;5.85;2.88;;;;;;;-145.63;100.00;61273.97;4982576;28;20142;-66
2024/04/17 03:11:07;;;;;;;7.13;3.10;;;;;;;-145.63;100.00;61273.97;4984100;28;20136;-65
2024/04/17 03:13:35;;;;;;;7.25;3.53;;;;;;;-145.63;100.00;61273.97;4979743;28;20532;-65
2024/04/17 03:16:04;;;;;;;5.00;3.10;;;;;;;-145.63;100.00;61273.97;4978739;28;20038;-66
2024/04/17 03:18:44;;;;;;;5.88;3.40;;;;;;;-145.63;100.00;61273.97;4983740;28;20431;-66
2024/04/17 03:21:10;;;;;;;4.38;2.67;;;;;;;-145.63;100.00;61273.97;4979199;28;20029;-66
2024/04/17 03:23:38;;;;;;;6.10;3.08;;;;;;;-145.63;100.00;61273.97;4980219;28;20461;-66
2024/04/17 03:26:04;;;;;;;5.88;3.20;;;;;;;-145.63;100.00;61273.97;4983755;28;20026;-66
2024/04/17 03:28:30;;;;;;;5.68;2.97;;;;;;;-145.63;100.00;61273.97;4978758;28;20038;-66
2024/04/17 03:31:33;;;;;;;5.32;2.63;;;;;;;-145.63;100.00;61273.97;4984391;28;20519;-68
2024/04/17 03:34:17;;;;;;;5.65;3.10;;;;;;;-145.63;100.00;61273.97;4980229;28;20023;-66
2024/04/17 03:36:48;;;;;;;5.47;3.22;;;;;;;-145.63;100.00;61273.97;4983216;28;20255;-63
2024/04/17 03:39:16;;;;;;;3.28;2.83;;;;;;;-145.63;100.00;61273.97;4983171;28;20073;-66
2024/04/17 03:41:42;;;;;;;3.85;2.85;;;;;;;-145.63;100.00;61273.97;4985475;28;20478;-64
2024/04/17 03:44:08;;;;;;;6.18;3.17;;;;;;;-145.63;100.00;61273.97;4980347;28;20031;-66
2024/04/17 03:46:42;;;;;;;4.78;2.90;;;;;;;-145.63;100.00;61273.97;4981322;28;20089;-64
2024/04/17 03:49:08;;;;;;;9.45;3.40;;;;;;;-145.63;100.00;61273.97;4984812;28;20030;-64
2024/04/17 03:51:51;;;;;;;5.13;3.80;;;;;;;-145.63;100.00;61273.97;4980442;28;20025;-64
2024/04/17 03:54:49;;;;;;;4.03;2.97;;;;;;;-145.63;100.00;61273.97;4979250;28;20038;-65
2024/04/17 03:57:20;;;;;;;6.60;3.10;;;;;;;-145.63;100.00;61273.97;4983303;28;20030;-66
2024/04/17 03:59:49;;;;;;;8.75;3.17;;;;;;;-145.63;100.00;61273.97;4981661;28;20047;-66
2024/04/17 04:02:38;;;;;;;5.82;3.10;;;;;;;-145.63;100.00;61273.97;4979770;28;20158;-65
2024/04/17 04:05:04;;;;;;;6.43;3.00;;;;;;;-145.63;100.00;61273.97;4985164;28;20062;-66
2024/04/17 04:10:44;;;;;;;6.38;3.03;;;;;;;-145.63;100.00;61273.97;4981679;28;20451;-66
2024/04/17 04:13:10;;;;;;;9.00;3.05;;;;;;;-145.63;100.00;61273.97;4978294;28;20031;-65
2024/04/17 04:15:38;;;;;;;6.70;3.10;;;;;;;-145.63;100.00;61273.97;4983486;28;20037;-66
2024/04/17 04:18:07;;;;;;;4.90;3.00;;;;;;;-145.63;100.00;61273.97;4995031;28;20086;-65
2024/04/17 04:20:35;;;;;;;6.43;3.42;;;;;;;-145.63;100.00;61273.97;4981638;28;20042;-65
2024/04/17 04:23:01;;;;;;;5.90;2.70;;;;;;;-145.63;100.00;61273.97;4981473;28;20034;-66
2024/04/17 04:25:29;;;;;;;4.38;2.83;;;;;;;-145.63;100.00;61273.97;4982438;28;20058;-69
2024/04/17 04:28:10;;;;;;;8.27;3.30;;;;;;;-145.63;100.00;61273.97;4981195;28;20063;-66
2024/04/17 04:30:41;;;;;;;5.13;3.13;;;;;;;-145.63;100.00;61273.97;4981799;28;20525;-66
2024/04/17 04:33:30;;;;;;;6.25;3.55;;;;;;;-145.63;100.00;61273.97;4980132;28;20038;-66
2024/04/17 04:35:56;;;;;;;6.50;3.28;;;;;;;-145.63;100.00;61273.97;4978648;28;20027;-67
2024/04/17 04:38:22;;;;;;;6.70;3.55;;;;;;;-145.63;100.00;61273.97;4978737;28;20026;-64
2024/04/17 04:40:59;;;;;;;4.10;3.35;;;;;;;-145.63;100.00;61273.97;4981895;28;20109;-65
2024/04/17 04:43:30;;;;;;;4.97;3.85;;;;;;;-145.63;100.00;61273.97;4982685;28;20077;-66
2024/04/17 04:46:32;;;;;;;6.72;3.42;;;;;;;-145.63;100.00;61273.97;4981755;28;20096;-65
2024/04/17 04:48:58;;;;;;;7.68;3.45;;;;;;;-145.63;100.00;61273.97;4977762;28;20030;-66
2024/04/17 04:51:38;;;;;;;7.70;3.67;;;;;;;-145.63;100.00;61273.97;4982671;28;20170;-65
2024/04/17 04:54:07;;;;;;;5.53;3.50;;;;;;;-145.63;100.00;61273.97;4974472;28;20384;-68
2024/04/17 04:56:35;;;;;;;6.93;3.65;;;;;;;-145.63;100.00;61273.97;4978513;28;20030;-66
2024/04/17 04:59:00;;;;;;;8.73;4.18;;;;;;;-145.63;100.00;61273.97;4980525;28;20054;-65
2024/04/17 05:01:26;;;;;;;6.88;3.42;;;;;;;-145.63;100.00;61273.97;4979120;28;20421;-67
2024/04/17 05:03:52;;;;;;;8.88;4.32;;;;;;;-145.63;100.00;61273.97;4979500;28;20069;-66
2024/04/17 05:06:17;;;;;;;5.03;4.15;;;;;;;-145.63;100.00;61273.97;4980587;28;20380;-66
2024/04/17 05:08:45;;;;;;;6.72;3.60;;;;;;;-145.63;100.00;61273.97;4980407;28;20113;-66
2024/04/17 05:11:20;;;;;;;7.40;4.03;;;;;;;-145.63;100.00;61273.97;4984762;28;20097;-66
2024/04/17 05:14:06;;;;;;;10.57;4.03;;;;;;;-145.63;100.00;61273.97;4985466;28;20046;-67
2024/04/17 05:16:44;;;;;;;5.88;3.80;;;;;;;-145.63;100.00;61273.97;4982603;28;20034;-65
2024/04/17 05:19:24;;;;;;;7.45;4.28;;;;;;;-145.63;100.00;61273.97;4977512;28;20027;-65
2024/04/17 05:22:04;;;;;;;6.80;4.22;;;;;;;-145.63;100.00;61273.97;4984938;28;20462;-66
2024/04/17 05:24:30;;;;;;;8.15;4.88;;;;;;;-145.63;100.00;61273.97;4977993;28;20384;-65
2024/04/17 05:26:56;;;;;;;8.75;4.95;;;;;;;-145.63;100.00;61273.97;4983437;28;20037;-65
2024/04/17 05:29:21;;;;;;;7.57;4.50;;;;;;;-145.63;100.00;61273.97;4977916;28;20460;-66
2024/04/17 05:31:47;;;;;;;8.02;4.72;;;;;;;-145.63;100.00;61273.97;4976315;28;20027;-65
2024/04/17 05:34:12;;;;;;;7.45;4.55;;;;;;;-145.63;100.00;61273.97;4982092;28;20113;-68
2024/04/17 05:36:38;;;;;;;7.72;4.50;;;;;;;-145.63;100.00;61273.97;4979969;28;20400;-66
2024/04/17 05:39:04;;;;;;;8.63;5.30;;;;;;;-145.63;100.00;61273.97;4985740;28;20034;-68
2024/04/17 05:41:30;;;;;;;7.25;5.05;;;;;;;-145.63;100.00;61273.97;4977860;28;20027;-68
2024/04/17 05:43:55;;;;;;;6.72;4.57;;;;;;;-145.63;100.00;61273.97;4975629;28;20057;-66
2024/04/17 05:46:25;;;;;;;13.70;8.00;;;;;;;-145.63;100.00;61273.97;4980572;28;20030;-67
2024/04/17 05:48:51;;;;;;;8.55;5.40;;;;;;;-145.63;100.00;61273.97;4981829;28;20131;-66
2024/04/17 05:51:17;;;;;;;8.65;5.70;;;;;;;-145.63;100.00;61273.97;4978569;28;20425;-66
2024/04/17 05:54:04;;;;;;;11.43;6.22;;;;;;;-145.63;100.00;61273.97;4983564;28;20081;-66
2024/04/17 05:56:29;;;;;;;13.23;8.27;;;;;;;-145.63;100.00;61273.97;4977370;28;20031;-66
2024/04/17 05:58:55;;;;;;;9.32;5.82;;;;;;;-145.63;100.00;61273.97;4979375;28;20130;-66
2024/04/17 06:01:20;;;;;;;7.05;5.70;;;;;;;-145.63;100.00;61273.97;4979477;28;20066;-66
2024/04/17 06:03:46;;;;;;;9.50;4.78;;;;;;;-145.63;100.00;61273.97;4982596;28;20046;-66
2024/04/17 06:06:17;;;;;;;6.10;4.45;;;;;;;-145.63;100.00;61273.97;4981131;28;20489;-66
2024/04/17 06:09:05;;;;;;;7.72;4.50;;;;;;;-145.63;100.00;61273.97;4972982;28;20034;-67
2024/04/17 06:11:30;;;;;;;9.55;5.40;;;;;;;-145.63;100.00;61273.97;4988726;28;20030;-67
2024/04/17 06:14:17;;;;;;;7.32;4.35;;;;;;;-145.63;100.00;61273.97;4991537;28;20383;-66
2024/04/17 06:16:43;;;;;;;7.60;5.50;;;;;;;-145.63;100.00;61273.97;4986781;28;20065;-65
2024/04/17 06:19:10;;;;;;;9.68;4.55;;;;;;;-145.63;100.00;61273.97;4979631;28;20467;-65
2024/04/17 06:21:54;;;;;;;7.05;5.13;;;;;;;-145.63;100.00;61273.97;4989770;28;20041;-66
2024/04/17 06:24:24;;;;;;;7.75;4.90;;;;;;;-145.63;100.00;61273.97;4983587;28;20177;-66
2024/04/17 06:26:50;;;;;;;9.63;4.32;;;;;;;-145.63;100.00;61273.97;4984359;28;20031;-66
2024/04/17 06:29:20;;;;;;;5.72;4.75;;;;;;;-145.63;100.00;61273.97;4973099;28;20035;-65
2024/04/17 06:32:32;;;;;;;7.88;5.35;;;;;;;-145.63;100.00;61273.97;4987940;28;20030;-65
2024/04/17 06:35:01;;;;;;;6.78;4.45;;;;;;;-145.63;100.00;61273.97;4986188;28;20118;-66
2024/04/17 06:37:26;;;;;;;7.47;4.50;;;;;;;-145.63;100.00;61273.97;4985334;28;20046;-66
2024/04/17 06:40:10;;;;;;;8.70;4.60;;;;;;;-145.63;100.00;61273.97;4979936;28;20041;-66
2024/04/17 06:42:57;;;;;;;8.60;6.25;;;;;;;-145.63;100.00;61273.97;5003325;28;20390;-66
2024/04/17 06:45:29;;;;;;;6.97;4.82;;;;;;;-145.63;100.00;61273.97;4993314;28;20109;-66
2024/04/17 06:48:35;;;;;;;8.30;5.32;;;;;;;-145.63;100.00;61273.97;4981963;28;20038;-67
2024/04/17 06:51:12;;;;;;;18.05;12.15;;;;;;;-145.63;100.00;61273.97;4982237;28;20082;-66
2024/04/17 06:53:37;;;;;;;7.97;5.35;;;;;;;-145.63;100.00;61273.97;4987749;28;20027;-66
2024/04/17 06:56:05;;;;;;;9.32;5.00;;;;;;;-145.63;100.00;61273.97;4977306;28;20176;-66
2024/04/17 06:59:08;;;;;;;7.63;3.88;;;;;;;-145.63;100.00;61273.97;4995706;28;20133;-71
2024/04/17 07:01:42;;;;;;;7.47;4.40;;;;;;;-145.63;100.00;61273.97;4977275;28;20042;-67
2024/04/17 07:04:26;;;;;;;6.20;4.30;;;;;;;-145.63;100.00;61273.97;4996001;28;20375;-67
2024/04/17 07:07:33;;;;;;;5.93;3.88;;;;;;;-145.63;100.00;61273.97;4935398;29;20036;-66
2024/04/17 07:10:07;;;;;;;7.13;4.35;;;;;;;-145.63;100.00;61273.97;4934910;29;20039;-67
2024/04/17 07:12:33;;;;;;;9.88;4.05;;;;;;;-145.63;100.00;61273.97;4934923;29;20463;-68
2024/04/17 07:14:59;;;;;;;8.88;3.80;;;;;;;-145.63;100.00;61273.97;4944445;28;20070;-68
2024/04/17 07:17:25;;;;;;;5.53;3.85;;;;;;;-145.63;100.00;61273.97;4979528;28;20112;-66
2024/04/17 07:19:50;;;;;;;5.63;4.05;;;;;;;-145.63;100.00;61273.97;4995395;28;20102;-66
2024/04/17 07:22:16;;;;;;;10.10;3.78;;;;;;;-145.63;100.00;61273.97;4991869;28;20478;-66
2024/04/17 07:28:06;;;;;;;7.07;4.30;;;;;;;-145.63;100.00;61273.97;4978461;28;20122;-67
2024/04/17 07:31:03;;;;;;;6.93;4.10;;;;;;;-145.63;100.00;61273.97;4988598;28;20430;-66
2024/04/17 07:33:50;;;;;;;7.82;4.13;;;;;;;-145.63;100.00;61273.97;4985952;28;20057;-66
2024/04/17 07:36:15;;;;;;;8.30;3.85;;;;;;;-145.63;100.00;61273.97;4994983;28;20030;-67
2024/04/17 07:38:45;;;;;;;5.53;3.38;;;;;;;-145.63;100.00;61273.97;4987532;28;20092;-65
2024/04/17 07:41:10;;;;;;;7.70;4.40;;;;;;;-145.63;100.00;61273.97;4978543;28;20030;-67
2024/04/17 07:43:36;;;;;;;5.82;4.13;;;;;;;-145.63;100.00;61273.97;5014808;28;20320;-67
2024/04/17 07:46:02;;;;;;;8.48;4.03;;;;;;;-145.63;100.00;61273.97;4997365;28;20448;-66
2024/04/17 07:48:30;;;;;;;6.53;4.07;;;;;;;-145.63;100.00;61273.97;4993223;28;20042;-66
2024/04/17 07:50:55;;;;;;;7.93;4.28;;;;;;;-145.63;100.00;61273.97;4994621;28;20030;-66
2024/04/17 07:53:21;;;;;;;4.57;3.85;;;;;;;-145.63;100.00;61273.97;4994526;28;20038;-65
2024/04/17 07:55:47;;;;;;;6.25;4.38;;;;;;;-145.63;100.00;61273.97;4993555;28;20102;-66
2024/04/17 07:58:13;;;;;;;9.05;4.72;;;;;;;-145.63;100.00;61273.97;4988236;28;20116;-65
2024/04/17 08:00:39;;;;;;;6.80;4.60;;;;;;;-145.63;100.00;61273.97;4987818;28;20046;-66
2024/04/17 08:03:05;;;;;;;6.95;4.07;;;;;;;-145.63;100.00;61273.97;4993821;28;20034;-66
2024/04/17 08:05:32;;;;;;;7.07;4.05;;;;;;;-145.63;100.00;61273.97;4994293;28;20514;-67
2024/04/17 08:07:58;;;;;;;5.45;4.20;;;;;;;-145.63;100.00;61273.97;4991967;28;20034;-65
2024/04/17 08:10:24;;;;;;;10.38;4.60;;;;;;;-145.63;100.00;61273.97;4993384;28;20038;-66
2024/04/17 08:12:52;;;;;;;9.43;4.72;;;;;;;-145.63;100.00;61273.97;4993840;28;20129;-66
2024/04/17 08:15:20;;;;;;;4.53;4.07;;;;;;;-145.63;100.00;61273.97;4994137;28;20038;-66
2024/04/17 08:17:47;;;;;;;5.28;3.88;;;;;;;-145.63;100.00;61273.97;4988464;28;20387;-66
2024/04/17 08:20:12;;;;;;;6.22;3.85;;;;;;;-145.63;100.00;61273.97;4993838;28;20049;-67
2024/04/17 08:22:38;;;;;;;7.15;4.47;;;;;;;-145.63;100.00;61273.97;4993662;28;20052;-66
2024/04/17 08:25:05;;;;;;;5.90;4.57;;;;;;;-145.63;100.00;61273.97;4993177;28;20037;-66
2024/04/17 08:27:30;;;;;;;4.22;3.55;;;;;;;-145.63;100.00;61273.97;4993420;28;20089;-66
2024/04/17 08:29:56;;;;;;;5.05;3.47;;;;;;;-145.63;100.00;61273.97;4990348;28;20030;-65
2024/04/17 08:32:22;;;;;;;4.15;3.13;;;;;;;-145.63;100.00;61273.97;4993552;28;20030;-65
2024/04/17 08:34:47;;;;;;;5.40;3.40;;;;;;;-145.63;100.00;61273.97;4987239;28;20058;-65
2024/04/17 08:40:36;;;;;;;6.47;3.55;;;;;;;-145.63;100.00;61273.97;4985128;28;20030;-65
2024/04/17 08:43:04;;;;;;;5.07;3.00;;;;;;;-145.63;100.00;61273.97;4980012;28;20053;-66
2024/04/17 08:45:34;;;;;;;5.15;3.25;;;;;;;-145.63;100.00;61273.97;4983952;28;20026;-66
2024/04/17 08:48:06;;;;;;;4.40;3.20;;;;;;;-145.63;100.00;61273.97;4982311;28;20075;-67
2024/04/17 08:56:39;;;;;;;6.05;3.70;;;;;;;-145.63;100.00;61273.97;4977782;28;20031;-67
2024/04/17 08:59:19;;;;;;;6.15;3.80;;;;;;;-145.63;100.00;61273.97;4985807;28;20822;-65
2024/04/17 09:01:47;;;;;;;5.30;3.80;;;;;;;-145.63;100.00;61273.97;4992194;28;20042;-68
2024/04/17 09:04:14;;;;;;;3.90;3.40;;;;;;;-145.63;100.00;61273.97;4992394;28;20494;-66
2024/04/17 09:06:40;;;;;;;4.18;3.45;;;;;;;-145.63;100.00;61273.97;4990536;28;20111;-66
2024/04/17 09:09:16;;;;;;;8.82;5.20;;;;;;;-145.63;100.00;61273.97;4992703;28;20073;-67
2024/04/17 09:11:43;;;;;;;6.80;4.70;;;;;;;-145.63;100.00;61273.97;4987225;28;20027;-67
2024/04/17 09:14:09;;;;;;;10.35;4.85;;;;;;;-145.63;100.00;61273.97;4974637;28;20066;-69
2024/04/17 09:16:35;;;;;;;6.85;3.85;;;;;;;-145.63;100.00;61273.97;4992419;28;20030;-67
2024/04/17 09:19:00;;;;;;;8.40;4.57;;;;;;;-145.63;100.00;61273.97;4977385;28;20052;-66
2024/04/17 09:21:26;;;;;;;5.90;4.05;;;;;;;-145.63;100.00;61273.97;4973738;28;20093;-66
2024/04/17 09:23:52;;;;;;;4.85;3.95;;;;;;;-145.63;100.00;61273.97;4979166;28;20443;-66
2024/04/17 09:26:18;;;;;;;6.00;4.50;;;;;;;-145.63;100.00;61273.97;4993104;28;20033;-66
2024/04/17 09:28:45;;;;;;;6.38;4.60;;;;;;;-145.63;100.00;61273.97;4993242;28;20070;-65
2024/04/17 09:31:11;;;;;;;7.63;4.82;;;;;;;-145.63;100.00;61273.97;4975606;28;20110;-66
2024/04/17 09:33:45;;;;;;;6.55;4.50;;;;;;;-145.63;100.00;61273.97;4987206;28;20034;-66
2024/04/17 09:36:10;;;;;;;5.03;4.40;;;;;;;-145.63;100.00;61273.97;4988865;28;20514;-66
2024/04/17 09:38:36;;;;;;;5.93;4.93;;;;;;;-145.63;100.00;61273.97;4992540;28;20054;-66
2024/04/17 09:41:02;;;;;;;9.18;5.30;;;;;;;-145.63;100.00;61273.97;4990261;28;20101;-65
2024/04/17 09:43:29;;;;;;;7.97;4.75;;;;;;;-145.63;100.00;61273.97;4999827;28;20117;-66
2024/04/17 09:45:57;;;;;;;9.30;4.53;;;;;;;-145.63;100.00;61273.97;4987647;28;20034;-66
2024/04/17 09:48:25;;;;;;;8.18;4.57;;;;;;;-145.63;100.00;61273.97;4990232;28;20062;-66
2024/04/17 09:50:58;;;;;;;9.82;5.22;;;;;;;-145.63;100.00;61273.97;4983162;28;20482;-68
2024/04/17 09:53:27;;;;;;;7.20;5.05;;;;;;;-145.63;100.00;61273.97;4974769;28;20030;-67
2024/04/17 09:55:54;;;;;;;9.35;4.90;;;;;;;-145.63;100.00;61273.97;4992443;28;20026;-66
2024/04/17 09:58:20;;;;;;;9.63;5.20;;;;;;;-145.63;100.00;61273.97;4992683;28;20070;-66
2024/04/17 10:00:46;;;;;;;7.35;4.60;;;;;;;-145.63;100.00;61273.97;4981522;28;20070;-66
2024/04/17 10:03:14;;;;;;;5.22;4.72;;;;;;;-145.63;100.00;61273.97;4981193;28;20037;-68
2024/04/17 10:11:56;;;;;;;8.10;4.85;;;;;;;-145.63;100.00;61273.97;4938069;29;20772;-66
2024/04/17 10:14:31;;;;;;;5.90;4.43;;;;;;;-145.63;100.00;61273.97;4931528;29;20521;-66
2024/04/17 10:17:00;;;;;;;9.52;4.53;;;;;;;-145.63;100.00;61273.97;4931439;29;20457;-67
2024/04/17 10:19:25;;;;;;;6.28;4.28;;;;;;;-145.63;100.00;61273.97;4914294;29;20040;-67
2024/04/17 10:21:54;;;;;;;7.18;3.95;;;;;;;-145.63;100.00;61273.97;4930365;28;20042;-67
2024/04/17 10:24:19;;;;;;;5.80;4.30;;;;;;;-145.63;100.00;61273.97;4972698;28;20571;-65
2024/04/17 10:26:47;;;;;;;5.38;3.70;;;;;;;-145.63;100.00;61273.97;4983992;28;20113;-67
2024/04/17 10:29:26;;;;;;;6.43;3.80;;;;;;;-145.63;100.00;61273.97;4994121;28;20077;-67
2024/04/17 10:32:02;;;;;;;7.40;3.25;;;;;;;-145.63;100.00;61273.97;4976594;28;20038;-66
2024/04/17 10:34:43;;;;;;;5.28;3.25;;;;;;;-145.63;100.00;61273.97;4995005;28;20033;-65
2024/04/17 10:37:10;;;;;;;4.45;3.22;;;;;;;-145.63;100.00;61273.97;4980493;28;20038;-68
2024/04/17 10:39:40;;;;;;;7.93;4.53;;;;;;;-145.63;100.00;61273.97;4979093;28;20045;-69
2024/04/17 10:42:06;;;;;;;7.18;4.10;;;;;;;-145.63;100.00;61273.97;4986867;28;20380;-66
2024/04/17 10:44:43;;;;;;;7.70;4.10;;;;;;;-145.63;100.00;61273.97;4984424;28;20034;-68
2024/04/17 10:47:27;;;;;;;7.25;3.95;;;;;;;-145.63;100.00;61273.97;4995174;28;20463;-68
2024/04/17 10:49:58;;;;;;;4.95;3.78;;;;;;;-145.63;100.00;61273.97;4975894;28;20066;-66
2024/04/17 10:52:25;;;;;;;8.90;3.65;;;;;;;-145.63;100.00;61273.97;4993726;28;20038;-65
2024/04/17 10:54:53;;;;;;;4.18;3.40;;;;;;;-145.63;100.00;61273.97;4982351;28;20129;-67
2024/04/17 10:57:19;;;;;;;3.95;3.00;;;;;;;-145.63;100.00;61273.97;4983788;28;20391;-67
2024/04/17 10:59:47;;;;;;;7.45;3.50;;;;;;;-145.63;100.00;61273.97;4990353;28;20046;-67
2024/04/17 11:02:13;;;;;;;4.65;3.05;;;;;;;-145.63;100.00;61273.97;4987383;28;20113;-65
2024/04/17 11:04:39;;;;;;;9.35;3.20;;;;;;;-145.63;100.00;61273.97;4976003;28;20093;-68
2024/04/17 11:07:08;;;;;;;4.57;2.70;;;;;;;-145.63;100.00;61273.97;4973962;28;20121;-69
2024/04/17 11:12:36;;;;;;;4.97;3.63;;;;;;;-145.63;100.00;61273.97;4986581;28;20058;-67
2024/04/17 11:15:02;;;;;;;8.65;3.63;;;;;;;-145.63;100.00;61273.97;4987789;28;20050;-67
2024/04/17 11:17:42;;;;;;;8.05;3.10;;;;;;;-145.63;100.00;61273.97;4987773;28;20050;-68
2024/04/17 11:20:24;;;;;;;4.65;3.38;;;;;;;-145.63;100.00;61273.97;4995032;28;20033;-67
2024/04/17 11:23:09;;;;;;;13.15;4.03;;;;;;;-145.63;100.00;61273.97;4988874;28;20061;-66
2024/04/17 11:25:40;;;;;;;9.93;4.78;;;;;;;-145.63;100.00;61273.97;4975640;28;20452;-70
2024/04/17 11:28:28;;;;;;;11.38;4.10;;;;;;;-145.63;100.00;61273.97;4990608;28;20121;-69
2024/04/17 11:31:11;;;;;;;8.43;4.10;;;;;;;-145.63;100.00;61273.97;4994063;28;20049;-70
2024/04/17 11:33:38;;;;;;;6.47;4.13;;;;;;;-145.63;100.00;61273.97;4989535;28;20037;-67
2024/04/17 11:36:41;;;;;;;8.00;4.32;;;;;;;-145.63;100.00;61273.97;4980971;28;20094;-68
2024/04/17 11:39:12;;;;;;;8.23;4.00;;;;;;;-145.63;100.00;61273.97;4978303;28;20117;-69
2024/04/17 11:41:41;;;;;;;14.73;5.05;;;;;;;-145.63;100.00;61273.97;4981174;28;20150;-69
2024/04/17 11:44:33;;;;;;;6.10;3.70;;;;;;;-145.63;100.00;61273.97;4979360;28;20066;-70
2024/04/17 11:47:02;;;;;;;5.25;4.30;;;;;;;-145.63;100.00;61273.97;4980574;28;20124;-70
2024/04/17 11:49:34;;;;;;;8.32;3.95;;;;;;;-145.63;100.00;61273.97;4994210;28;20046;-69
2024/04/17 11:52:40;;;;;;;7.10;4.28;;;;;;;-145.63;100.00;61273.97;4989714;28;20101;-69
2024/04/17 11:55:22;;;;;;;7.25;4.30;;;;;;;-145.63;100.00;61273.97;4990226;28;20030;-69
2024/04/17 11:57:48;;;;;;;6.63;3.65;;;;;;;-145.63;100.00;61273.97;4981297;28;20047;-68